sensor_id;sensor_type;location;lat;lon;timestamp;temperature;humidity
57282;DHT22;43129;52.628;10.098;2023-10-19T00:01:23;8.10;99.90
57282;DHT22;43129;52.628;10.098;2023-10-19T00:03:53;8.10;99.90
57282;DHT22;43129;52.628;10.098;2023-10-19T00:06:22;8.00;99.90
57282;DHT22;43129;52.628;10.098;2023-10-19T00:08:49;8.00;99.90
57282;DHT22;43129;52.628;10.098;2023-10-19T00:11:18;8.00;99.90
57282;DHT22;43129;52.628;10.098;2023-10-19T00:13:51;7.90;99.90
57282;DHT22;43129;52.628;10.098;2023-10-19T00:16:20;7.90;99.90
57282;DHT22;43129;52.628;10.098;2023-10-19T00:18:51;7.80;99.90
57282;DHT22;43129;52.628;10.098;2023-10-19T00:21:18;7.80;99.90
57282;DHT22;43129;52.628;10.098;2023-10-19T00:23:53;7.80;99.90
57282;DHT22;43129;52.628;10.098;2023-10-19T00:26:24;7.80;99.90
57282;DHT22;43129;52.628;10.098;2023-10-19T00:28:51;7.80;99.90
57282;DHT22;43129;52.628;10.098;2023-10-19T00:31:27;7.80;99.90
57282;DHT22;43129;52.628;10.098;2023-10-19T00:33:53;7.70;99.90
57282;DHT22;43129;52.628;10.098;2023-10-19T00:36:25;7.70;99.90
57282;DHT22;43129;52.628;10.098;2023-10-19T00:38:52;7.70;99.90
57282;DHT22;43129;52.628;10.098;2023-10-19T00:41:21;7.60;99.90
57282;DHT22;43129;52.628;10.098;2023-10-19T00:43:48;7.60;99.90
57282;DHT22;43129;52.628;10.098;2023-10-19T00:46:23;7.50;99.90
57282;DHT22;43129;52.628;10.098;2023-10-19T00:48:59;7.50;99.90
57282;DHT22;43129;52.628;10.098;2023-10-19T00:51:31;7.50;99.90
57282;DHT22;43129;52.628;10.098;2023-10-19T00:54:10;7.50;99.90
57282;DHT22;43129;52.628;10.098;2023-10-19T00:56:45;7.50;99.90
57282;DHT22;43129;52.628;10.098;2023-10-19T00:59:17;7.50;99.90
57282;DHT22;43129;52.628;10.098;2023-10-19T01:01:46;7.60;99.90
57282;DHT22;43129;52.628;10.098;2023-10-19T01:04:15;7.50;99.90
57282;DHT22;43129;52.628;10.098;2023-10-19T01:06:56;7.50;99.90
57282;DHT22;43129;52.628;10.098;2023-10-19T01:09:29;7.50;99.90
57282;DHT22;43129;52.628;10.098;2023-10-19T01:12:04;7.50;99.90
57282;DHT22;43129;52.628;10.098;2023-10-19T01:17:36;7.50;99.90
57282;DHT22;43129;52.628;10.098;2023-10-19T01:20:08;7.50;99.90
57282;DHT22;43129;52.628;10.098;2023-10-19T01:22:53;7.50;99.90
57282;DHT22;43129;52.628;10.098;2023-10-19T01:25:25;7.50;99.90
57282;DHT22;43129;52.628;10.098;2023-10-19T01:28:02;7.50;99.90
57282;DHT22;43129;52.628;10.098;2023-10-19T01:30:33;7.50;99.90
57282;DHT22;43129;52.628;10.098;2023-10-19T01:33:02;7.50;99.90
57282;DHT22;43129;52.628;10.098;2023-10-19T01:35:32;7.40;99.90
57282;DHT22;43129;52.628;10.098;2023-10-19T01:38:20;7.50;99.90
57282;DHT22;43129;52.628;10.098;2023-10-19T01:40:45;7.40;99.90
57282;DHT22;43129;52.628;10.098;2023-10-19T01:43:14;7.40;99.90
57282;DHT22;43129;52.628;10.098;2023-10-19T01:46:01;7.40;99.90
57282;DHT22;43129;52.628;10.098;2023-10-19T01:48:31;7.30;99.90
57282;DHT22;43129;52.628;10.098;2023-10-19T01:51:03;7.30;99.90
57282;DHT22;43129;52.628;10.098;2023-10-19T01:53:33;7.30;99.90
57282;DHT22;43129;52.628;10.098;2023-10-19T01:56:04;7.20;99.90
57282;DHT22;43129;52.628;10.098;2023-10-19T01:58:31;7.20;99.90
57282;DHT22;43129;52.628;10.098;2023-10-19T02:01:04;7.10;99.90
57282;DHT22;43129;52.628;10.098;2023-10-19T02:03:42;7.10;99.90
57282;DHT22;43129;52.628;10.098;2023-10-19T02:06:13;7.10;99.90
57282;DHT22;43129;52.628;10.098;2023-10-19T02:08:56;7.10;99.90
57282;DHT22;43129;52.628;10.098;2023-10-19T02:11:26;7.10;99.90
57282;DHT22;43129;52.628;10.098;2023-10-19T02:13:55;7.00;99.90
57282;DHT22;43129;52.628;10.098;2023-10-19T02:16:22;7.00;99.90
57282;DHT22;43129;52.628;10.098;2023-10-19T02:18:51;7.10;99.90
57282;DHT22;43129;52.628;10.098;2023-10-19T02:21:19;7.10;99.90
57282;DHT22;43129;52.628;10.098;2023-10-19T02:23:50;7.00;99.90
57282;DHT22;43129;52.628;10.098;2023-10-19T02:26:22;7.00;99.90
57282;DHT22;43129;52.628;10.098;2023-10-19T02:28:53;7.00;99.90
57282;DHT22;43129;52.628;10.098;2023-10-19T02:31:22;6.90;99.90
57282;DHT22;43129;52.628;10.098;2023-10-19T02:33:49;6.90;99.90
57282;DHT22;43129;52.628;10.098;2023-10-19T02:36:20;6.90;99.90
57282;DHT22;43129;52.628;10.098;2023-10-19T02:38:48;6.90;99.90
57282;DHT22;43129;52.628;10.098;2023-10-19T02:41:16;6.90;99.90
57282;DHT22;43129;52.628;10.098;2023-10-19T02:43:46;6.90;99.90
57282;DHT22;43129;52.628;10.098;2023-10-19T02:46:16;6.90;99.90
57282;DHT22;43129;52.628;10.098;2023-10-19T02:48:48;6.90;99.90
57282;DHT22;43129;52.628;10.098;2023-10-19T02:51:15;6.90;99.90
57282;DHT22;43129;52.628;10.098;2023-10-19T02:53:41;6.90;99.90
57282;DHT22;43129;52.628;10.098;2023-10-19T02:56:14;6.90;99.90
57282;DHT22;43129;52.628;10.098;2023-10-19T02:58:49;6.80;99.90
57282;DHT22;43129;52.628;10.098;2023-10-19T03:01:24;6.80;99.90
57282;DHT22;43129;52.628;10.098;2023-10-19T03:03:55;6.80;99.90
57282;DHT22;43129;52.628;10.098;2023-10-19T03:06:29;6.80;99.90
57282;DHT22;43129;52.628;10.098;2023-10-19T03:08:59;6.80;99.90
57282;DHT22;43129;52.628;10.098;2023-10-19T03:11:30;6.80;99.90
57282;DHT22;43129;52.628;10.098;2023-10-19T03:13:58;6.70;99.90
57282;DHT22;43129;52.628;10.098;2023-10-19T03:16:26;6.70;99.90
57282;DHT22;43129;52.628;10.098;2023-10-19T03:18:58;6.70;99.90
57282;DHT22;43129;52.628;10.098;2023-10-19T03:21:26;6.70;99.90
57282;DHT22;43129;52.628;10.098;2023-10-19T03:23:54;6.70;99.90
57282;DHT22;43129;52.628;10.098;2023-10-19T03:26:24;6.70;99.90
57282;DHT22;43129;52.628;10.098;2023-10-19T03:28:56;6.80;99.90
57282;DHT22;43129;52.628;10.098;2023-10-19T03:31:29;6.70;99.90
57282;DHT22;43129;52.628;10.098;2023-10-19T03:33:57;6.80;99.90
57282;DHT22;43129;52.628;10.098;2023-10-19T03:36:25;6.80;99.90
57282;DHT22;43129;52.628;10.098;2023-10-19T03:38:54;6.70;99.90
57282;DHT22;43129;52.628;10.098;2023-10-19T03:41:22;6.70;99.90
57282;DHT22;43129;52.628;10.098;2023-10-19T03:43:53;6.80;99.90
57282;DHT22;43129;52.628;10.098;2023-10-19T03:46:22;6.80;99.90
57282;DHT22;43129;52.628;10.098;2023-10-19T03:49:00;6.80;99.90
57282;DHT22;43129;52.628;10.098;2023-10-19T03:51:47;6.70;99.90
57282;DHT22;43129;52.628;10.098;2023-10-19T03:54:50;6.70;99.90
57282;DHT22;43129;52.628;10.098;2023-10-19T03:57:18;6.70;99.90
57282;DHT22;43129;52.628;10.098;2023-10-19T03:59:55;6.80;99.90
57282;DHT22;43129;52.628;10.098;2023-10-19T04:02:28;6.70;99.90
57282;DHT22;43129;52.628;10.098;2023-10-19T04:04:55;6.70;99.90
57282;DHT22;43129;52.628;10.098;2023-10-19T04:07:25;6.70;99.90
57282;DHT22;43129;52.628;10.098;2023-10-19T04:09:52;6.70;99.90
57282;DHT22;43129;52.628;10.098;2023-10-19T04:12:38;6.70;99.90
57282;DHT22;43129;52.628;10.098;2023-10-19T04:15:10;6.70;99.90
57282;DHT22;43129;52.628;10.098;2023-10-19T04:17:46;6.70;99.90
57282;DHT22;43129;52.628;10.098;2023-10-19T04:20:18;6.70;99.90
57282;DHT22;43129;52.628;10.098;2023-10-19T04:22:48;6.70;99.90
57282;DHT22;43129;52.628;10.098;2023-10-19T04:25:15;6.70;99.90
57282;DHT22;43129;52.628;10.098;2023-10-19T04:27:42;6.70;99.90
57282;DHT22;43129;52.628;10.098;2023-10-19T04:30:12;6.70;99.90
57282;DHT22;43129;52.628;10.098;2023-10-19T04:32:50;6.70;99.90
57282;DHT22;43129;52.628;10.098;2023-10-19T04:35:16;6.70;99.90
57282;DHT22;43129;52.628;10.098;2023-10-19T04:37:52;6.60;99.90
57282;DHT22;43129;52.628;10.098;2023-10-19T04:40:21;6.60;99.90
57282;DHT22;43129;52.628;10.098;2023-10-19T04:42:51;6.70;99.90
57282;DHT22;43129;52.628;10.098;2023-10-19T04:45:17;6.70;99.90
57282;DHT22;43129;52.628;10.098;2023-10-19T04:47:43;6.70;99.90
57282;DHT22;43129;52.628;10.098;2023-10-19T04:50:14;6.70;99.90
57282;DHT22;43129;52.628;10.098;2023-10-19T04:52:43;6.70;99.90
57282;DHT22;43129;52.628;10.098;2023-10-19T04:55:09;6.60;99.90
57282;DHT22;43129;52.628;10.098;2023-10-19T04:57:37;6.70;99.90
57282;DHT22;43129;52.628;10.098;2023-10-19T05:00:03;6.70;99.90
57282;DHT22;43129;52.628;10.098;2023-10-19T05:02:29;6.60;99.90
57282;DHT22;43129;52.628;10.098;2023-10-19T05:04:55;6.60;99.90
57282;DHT22;43129;52.628;10.098;2023-10-19T05:07:20;6.60;99.90
57282;DHT22;43129;52.628;10.098;2023-10-19T05:09:46;6.60;99.90
57282;DHT22;43129;52.628;10.098;2023-10-19T05:12:15;6.60;99.90
57282;DHT22;43129;52.628;10.098;2023-10-19T05:14:44;6.60;99.90
57282;DHT22;43129;52.628;10.098;2023-10-19T05:17:10;6.60;99.90
57282;DHT22;43129;52.628;10.098;2023-10-19T05:19:36;6.60;99.90
57282;DHT22;43129;52.628;10.098;2023-10-19T05:22:04;6.60;99.90
57282;DHT22;43129;52.628;10.098;2023-10-19T05:24:30;6.60;99.90
57282;DHT22;43129;52.628;10.098;2023-10-19T05:27:01;6.60;99.90
57282;DHT22;43129;52.628;10.098;2023-10-19T05:29:27;6.60;99.90
57282;DHT22;43129;52.628;10.098;2023-10-19T05:31:55;6.60;99.90
57282;DHT22;43129;52.628;10.098;2023-10-19T05:34:25;6.60;99.90
57282;DHT22;43129;52.628;10.098;2023-10-19T05:36:57;6.60;99.90
57282;DHT22;43129;52.628;10.098;2023-10-19T05:39:28;6.60;99.90
57282;DHT22;43129;52.628;10.098;2023-10-19T05:41:55;6.60;99.90
57282;DHT22;43129;52.628;10.098;2023-10-19T05:44:21;6.60;99.90
57282;DHT22;43129;52.628;10.098;2023-10-19T05:46:46;6.60;99.90
57282;DHT22;43129;52.628;10.098;2023-10-19T05:49:14;6.60;99.90
57282;DHT22;43129;52.628;10.098;2023-10-19T05:51:42;6.60;99.90
57282;DHT22;43129;52.628;10.098;2023-10-19T05:54:13;6.60;99.90
57282;DHT22;43129;52.628;10.098;2023-10-19T05:56:39;6.60;99.90
57282;DHT22;43129;52.628;10.098;2023-10-19T05:59:09;6.60;99.90
57282;DHT22;43129;52.628;10.098;2023-10-19T06:01:36;6.70;99.90
57282;DHT22;43129;52.628;10.098;2023-10-19T06:04:03;6.60;99.90
57282;DHT22;43129;52.628;10.098;2023-10-19T06:06:28;6.70;99.90
57282;DHT22;43129;52.628;10.098;2023-10-19T06:08:54;6.60;99.90
57282;DHT22;43129;52.628;10.098;2023-10-19T06:11:21;6.60;99.90
57282;DHT22;43129;52.628;10.098;2023-10-19T06:13:57;6.70;99.90
57282;DHT22;43129;52.628;10.098;2023-10-19T06:16:22;6.70;99.90
57282;DHT22;43129;52.628;10.098;2023-10-19T06:18:50;6.70;99.90
57282;DHT22;43129;52.628;10.098;2023-10-19T06:21:21;6.60;99.90
57282;DHT22;43129;52.628;10.098;2023-10-19T06:23:49;6.60;99.90
57282;DHT22;43129;52.628;10.098;2023-10-19T06:26:15;6.60;99.90
57282;DHT22;43129;52.628;10.098;2023-10-19T06:28:44;6.60;99.90
57282;DHT22;43129;52.628;10.098;2023-10-19T06:36:20;6.60;99.90
57282;DHT22;43129;52.628;10.098;2023-10-19T06:38:46;6.60;99.90
57282;DHT22;43129;52.628;10.098;2023-10-19T06:41:13;6.60;99.90
57282;DHT22;43129;52.628;10.098;2023-10-19T06:43:39;6.60;99.90
57282;DHT22;43129;52.628;10.098;2023-10-19T06:46:08;6.60;99.90
57282;DHT22;43129;52.628;10.098;2023-10-19T06:48:37;6.60;99.90
57282;DHT22;43129;52.628;10.098;2023-10-19T06:51:02;6.60;99.90
57282;DHT22;43129;52.628;10.098;2023-10-19T06:53:31;6.70;99.90
57282;DHT22;43129;52.628;10.098;2023-10-19T06:56:02;6.70;99.90
57282;DHT22;43129;52.628;10.098;2023-10-19T06:58:31;6.70;99.90
57282;DHT22;43129;52.628;10.098;2023-10-19T07:00:57;6.70;99.90
57282;DHT22;43129;52.628;10.098;2023-10-19T07:03:25;6.70;99.90
57282;DHT22;43129;52.628;10.098;2023-10-19T07:05:53;6.70;99.90
57282;DHT22;43129;52.628;10.098;2023-10-19T07:08:26;6.70;99.90
57282;DHT22;43129;52.628;10.098;2023-10-19T07:10:52;6.70;99.90
57282;DHT22;43129;52.628;10.098;2023-10-19T07:13:20;6.70;99.90
57282;DHT22;43129;52.628;10.098;2023-10-19T07:15:47;6.70;99.90
57282;DHT22;43129;52.628;10.098;2023-10-19T07:18:15;6.80;99.90
57282;DHT22;43129;52.628;10.098;2023-10-19T07:20:41;6.70;99.90
57282;DHT22;43129;52.628;10.098;2023-10-19T07:23:09;6.70;99.90
57282;DHT22;43129;52.628;10.098;2023-10-19T07:25:52;6.80;99.90
57282;DHT22;43129;52.628;10.098;2023-10-19T07:28:25;6.80;99.90
57282;DHT22;43129;52.628;10.098;2023-10-19T07:30:52;6.80;99.90
57282;DHT22;43129;52.628;10.098;2023-10-19T07:33:18;6.80;99.90
57282;DHT22;43129;52.628;10.098;2023-10-19T07:35:45;6.80;99.90
57282;DHT22;43129;52.628;10.098;2023-10-19T07:38:18;6.80;99.90
57282;DHT22;43129;52.628;10.098;2023-10-19T07:40:47;6.80;99.90
57282;DHT22;43129;52.628;10.098;2023-10-19T07:43:13;6.80;99.90
57282;DHT22;43129;52.628;10.098;2023-10-19T07:45:40;6.80;99.90
57282;DHT22;43129;52.628;10.098;2023-10-19T07:48:08;6.80;99.90
57282;DHT22;43129;52.628;10.098;2023-10-19T07:50:37;6.90;99.90
57282;DHT22;43129;52.628;10.098;2023-10-19T07:53:03;6.80;99.90
57282;DHT22;43129;52.628;10.098;2023-10-19T07:55:29;6.80;99.90
57282;DHT22;43129;52.628;10.098;2023-10-19T07:57:57;6.80;99.90
57282;DHT22;43129;52.628;10.098;2023-10-19T08:00:25;6.80;99.90
57282;DHT22;43129;52.628;10.098;2023-10-19T08:02:52;6.80;99.90
57282;DHT22;43129;52.628;10.098;2023-10-19T08:05:20;6.80;99.90
57282;DHT22;43129;52.628;10.098;2023-10-19T08:07:47;6.80;99.90
57282;DHT22;43129;52.628;10.098;2023-10-19T08:10:14;6.90;99.90
57282;DHT22;43129;52.628;10.098;2023-10-19T08:12:41;6.80;99.90
57282;DHT22;43129;52.628;10.098;2023-10-19T08:15:12;6.90;99.90
57282;DHT22;43129;52.628;10.098;2023-10-19T08:17:38;6.90;99.90
57282;DHT22;43129;52.628;10.098;2023-10-19T08:20:06;6.90;99.90
57282;DHT22;43129;52.628;10.098;2023-10-19T08:22:37;6.90;99.90
57282;DHT22;43129;52.628;10.098;2023-10-19T08:25:04;7.00;99.90
57282;DHT22;43129;52.628;10.098;2023-10-19T08:27:38;7.10;99.90
57282;DHT22;43129;52.628;10.098;2023-10-19T08:30:06;7.10;99.90
57282;DHT22;43129;52.628;10.098;2023-10-19T08:32:34;7.20;99.90
57282;DHT22;43129;52.628;10.098;2023-10-19T08:35:03;7.10;99.90
57282;DHT22;43129;52.628;10.098;2023-10-19T08:37:29;7.20;99.90
57282;DHT22;43129;52.628;10.098;2023-10-19T08:39:55;7.20;99.90
57282;DHT22;43129;52.628;10.098;2023-10-19T08:42:21;7.10;99.90
57282;DHT22;43129;52.628;10.098;2023-10-19T08:44:49;7.10;99.90
57282;DHT22;43129;52.628;10.098;2023-10-19T08:47:15;7.10;99.90
57282;DHT22;43129;52.628;10.098;2023-10-19T08:49:41;7.10;99.90
57282;DHT22;43129;52.628;10.098;2023-10-19T08:52:07;7.20;99.90
57282;DHT22;43129;52.628;10.098;2023-10-19T08:54:34;7.10;99.90
57282;DHT22;43129;52.628;10.098;2023-10-19T08:57:00;7.20;99.90
57282;DHT22;43129;52.628;10.098;2023-10-19T08:59:26;7.20;99.90
57282;DHT22;43129;52.628;10.098;2023-10-19T09:02:02;7.20;99.90
57282;DHT22;43129;52.628;10.098;2023-10-19T09:04:31;7.20;99.90
57282;DHT22;43129;52.628;10.098;2023-10-19T09:07:02;7.20;99.90
57282;DHT22;43129;52.628;10.098;2023-10-19T09:09:33;7.30;99.90
57282;DHT22;43129;52.628;10.098;2023-10-19T09:11:59;7.20;99.90
57282;DHT22;43129;52.628;10.098;2023-10-19T09:14:35;7.10;99.90
57282;DHT22;43129;52.628;10.098;2023-10-19T09:17:08;7.20;99.90
57282;DHT22;43129;52.628;10.098;2023-10-19T09:19:45;7.20;99.90
57282;DHT22;43129;52.628;10.098;2023-10-19T09:22:14;7.20;99.90
57282;DHT22;43129;52.628;10.098;2023-10-19T09:24:54;7.30;99.90
57282;DHT22;43129;52.628;10.098;2023-10-19T09:27:23;7.30;99.90
57282;DHT22;43129;52.628;10.098;2023-10-19T09:29:51;7.30;99.90
57282;DHT22;43129;52.628;10.098;2023-10-19T09:32:17;7.30;99.90
57282;DHT22;43129;52.628;10.098;2023-10-19T09:34:47;7.20;99.90
57282;DHT22;43129;52.628;10.098;2023-10-19T09:37:16;7.30;99.90
57282;DHT22;43129;52.628;10.098;2023-10-19T09:39:42;7.30;99.90
57282;DHT22;43129;52.628;10.098;2023-10-19T09:42:09;7.30;99.90
57282;DHT22;43129;52.628;10.098;2023-10-19T09:44:47;7.30;99.90
57282;DHT22;43129;52.628;10.098;2023-10-19T09:47:26;7.30;99.90
57282;DHT22;43129;52.628;10.098;2023-10-19T09:49:57;7.30;99.90
57282;DHT22;43129;52.628;10.098;2023-10-19T09:52:23;7.30;99.90
57282;DHT22;43129;52.628;10.098;2023-10-19T09:55:08;7.30;99.90
57282;DHT22;43129;52.628;10.098;2023-10-19T10:00:48;7.40;99.90
57282;DHT22;43129;52.628;10.098;2023-10-19T10:03:44;7.40;99.90
57282;DHT22;43129;52.628;10.098;2023-10-19T10:06:11;7.40;99.90
57282;DHT22;43129;52.628;10.098;2023-10-19T10:08:41;7.40;99.90
57282;DHT22;43129;52.628;10.098;2023-10-19T10:13:50;7.50;99.90
57282;DHT22;43129;52.628;10.098;2023-10-19T10:16:26;7.60;99.90
57282;DHT22;43129;52.628;10.098;2023-10-19T10:18:55;7.50;99.90
57282;DHT22;43129;52.628;10.098;2023-10-19T10:21:22;7.50;99.90
57282;DHT22;43129;52.628;10.098;2023-10-19T10:24:00;7.60;99.90
57282;DHT22;43129;52.628;10.098;2023-10-19T10:26:30;7.70;99.90
57282;DHT22;43129;52.628;10.098;2023-10-19T10:29:14;7.60;99.90
57282;DHT22;43129;52.628;10.098;2023-10-19T10:31:48;7.60;99.90
57282;DHT22;43129;52.628;10.098;2023-10-19T10:39:30;7.50;99.90
57282;DHT22;43129;52.628;10.098;2023-10-19T10:42:01;7.50;99.90
57282;DHT22;43129;52.628;10.098;2023-10-19T10:44:36;7.50;99.90
57282;DHT22;43129;52.628;10.098;2023-10-19T10:47:10;7.50;99.90
57282;DHT22;43129;52.628;10.098;2023-10-19T10:54:55;7.50;99.90
57282;DHT22;43129;52.628;10.098;2023-10-19T10:57:21;7.60;99.90
57282;DHT22;43129;52.628;10.098;2023-10-19T10:59:46;7.60;99.90
57282;DHT22;43129;52.628;10.098;2023-10-19T11:02:21;7.60;99.90
57282;DHT22;43129;52.628;10.098;2023-10-19T11:04:47;7.60;99.90
57282;DHT22;43129;52.628;10.098;2023-10-19T11:07:19;7.60;99.90
57282;DHT22;43129;52.628;10.098;2023-10-19T11:09:46;7.70;99.90
57282;DHT22;43129;52.628;10.098;2023-10-19T11:12:15;7.70;99.90
57282;DHT22;43129;52.628;10.098;2023-10-19T11:14:57;7.70;99.90
57282;DHT22;43129;52.628;10.098;2023-10-19T11:17:28;7.60;99.90
57282;DHT22;43129;52.628;10.098;2023-10-19T11:19:58;7.70;99.90
57282;DHT22;43129;52.628;10.098;2023-10-19T11:22:25;7.70;99.90
57282;DHT22;43129;52.628;10.098;2023-10-19T11:24:52;7.70;99.90
57282;DHT22;43129;52.628;10.098;2023-10-19T11:27:36;7.70;99.90
57282;DHT22;43129;52.628;10.098;2023-10-19T11:30:03;7.70;99.90
57282;DHT22;43129;52.628;10.098;2023-10-19T11:32:36;7.80;99.90
57282;DHT22;43129;52.628;10.098;2023-10-19T11:35:06;7.90;99.90
57282;DHT22;43129;52.628;10.098;2023-10-19T11:37:55;8.00;99.90
57282;DHT22;43129;52.628;10.098;2023-10-19T11:40:21;8.00;99.90
57282;DHT22;43129;52.628;10.098;2023-10-19T11:42:56;8.00;99.90
57282;DHT22;43129;52.628;10.098;2023-10-19T11:45:24;7.90;99.90
57282;DHT22;43129;52.628;10.098;2023-10-19T11:47:50;7.90;99.90
57282;DHT22;43129;52.628;10.098;2023-10-19T11:50:18;8.00;99.90
57282;DHT22;43129;52.628;10.098;2023-10-19T11:52:47;7.90;99.90
57282;DHT22;43129;52.628;10.098;2023-10-19T11:55:13;7.90;99.90
57282;DHT22;43129;52.628;10.098;2023-10-19T11:57:46;7.90;99.90
57282;DHT22;43129;52.628;10.098;2023-10-19T12:00:15;7.80;99.90
57282;DHT22;43129;52.628;10.098;2023-10-19T12:02:50;7.90;99.90
57282;DHT22;43129;52.628;10.098;2023-10-19T12:05:17;7.90;99.90
57282;DHT22;43129;52.628;10.098;2023-10-19T12:07:42;7.90;99.90
57282;DHT22;43129;52.628;10.098;2023-10-19T12:10:10;7.80;99.90
57282;DHT22;43129;52.628;10.098;2023-10-19T12:12:38;7.80;99.90
57282;DHT22;43129;52.628;10.098;2023-10-19T12:15:06;7.80;99.90
57282;DHT22;43129;52.628;10.098;2023-10-19T12:17:33;7.90;99.90
57282;DHT22;43129;52.628;10.098;2023-10-19T12:19:58;7.90;99.90
57282;DHT22;43129;52.628;10.098;2023-10-19T12:22:24;7.90;99.90
57282;DHT22;43129;52.628;10.098;2023-10-19T12:24:58;7.90;99.90
57282;DHT22;43129;52.628;10.098;2023-10-19T12:27:26;8.00;99.90
57282;DHT22;43129;52.628;10.098;2023-10-19T12:29:54;8.00;99.90
57282;DHT22;43129;52.628;10.098;2023-10-19T12:32:21;7.90;99.90
57282;DHT22;43129;52.628;10.098;2023-10-19T12:34:47;7.90;99.90
57282;DHT22;43129;52.628;10.098;2023-10-19T12:37:18;7.90;99.90
57282;DHT22;43129;52.628;10.098;2023-10-19T12:39:44;7.90;99.90
57282;DHT22;43129;52.628;10.098;2023-10-19T12:42:16;7.90;99.90
57282;DHT22;43129;52.628;10.098;2023-10-19T12:44:42;7.80;99.90
57282;DHT22;43129;52.628;10.098;2023-10-19T12:47:09;7.80;99.90
57282;DHT22;43129;52.628;10.098;2023-10-19T12:49:37;7.80;99.90
57282;DHT22;43129;52.628;10.098;2023-10-19T12:52:03;7.70;99.90
57282;DHT22;43129;52.628;10.098;2023-10-19T12:54:33;7.70;99.90
57282;DHT22;43129;52.628;10.098;2023-10-19T12:57:00;7.70;99.90
57282;DHT22;43129;52.628;10.098;2023-10-19T12:59:26;7.70;99.90
57282;DHT22;43129;52.628;10.098;2023-10-19T13:01:51;7.70;99.90
57282;DHT22;43129;52.628;10.098;2023-10-19T13:04:20;7.70;99.90
57282;DHT22;43129;52.628;10.098;2023-10-19T13:06:50;7.80;99.90
57282;DHT22;43129;52.628;10.098;2023-10-19T13:09:15;7.80;99.90
57282;DHT22;43129;52.628;10.098;2023-10-19T13:11:47;7.80;99.90
57282;DHT22;43129;52.628;10.098;2023-10-19T13:14:19;7.80;99.90
57282;DHT22;43129;52.628;10.098;2023-10-19T13:16:44;7.80;99.90
57282;DHT22;43129;52.628;10.098;2023-10-19T13:19:10;7.80;99.90
57282;DHT22;43129;52.628;10.098;2023-10-19T13:21:41;7.80;99.90
57282;DHT22;43129;52.628;10.098;2023-10-19T13:24:08;7.80;99.90
57282;DHT22;43129;52.628;10.098;2023-10-19T13:26:34;7.80;99.90
57282;DHT22;43129;52.628;10.098;2023-10-19T13:29:00;7.80;99.90
57282;DHT22;43129;52.628;10.098;2023-10-19T13:31:25;7.80;99.90
57282;DHT22;43129;52.628;10.098;2023-10-19T13:33:52;7.80;99.90
57282;DHT22;43129;52.628;10.098;2023-10-19T13:36:18;7.70;99.90
57282;DHT22;43129;52.628;10.098;2023-10-19T13:38:45;7.70;99.90
57282;DHT22;43129;52.628;10.098;2023-10-19T13:41:11;7.80;99.90
57282;DHT22;43129;52.628;10.098;2023-10-19T13:43:38;7.80;99.90
57282;DHT22;43129;52.628;10.098;2023-10-19T13:46:04;7.80;99.90
57282;DHT22;43129;52.628;10.098;2023-10-19T13:48:31;7.80;99.90
57282;DHT22;43129;52.628;10.098;2023-10-19T13:50:59;7.80;99.90
57282;DHT22;43129;52.628;10.098;2023-10-19T13:53:38;7.80;99.90
57282;DHT22;43129;52.628;10.098;2023-10-19T13:56:07;7.80;99.90
57282;DHT22;43129;52.628;10.098;2023-10-19T13:58:34;7.80;99.90
57282;DHT22;43129;52.628;10.098;2023-10-19T14:01:00;7.80;99.90
57282;DHT22;43129;52.628;10.098;2023-10-19T14:03:29;7.70;99.90
57282;DHT22;43129;52.628;10.098;2023-10-19T14:05:56;7.70;99.90
57282;DHT22;43129;52.628;10.098;2023-10-19T14:08:24;7.80;99.90
57282;DHT22;43129;52.628;10.098;2023-10-19T14:10:50;7.80;99.90
57282;DHT22;43129;52.628;10.098;2023-10-19T14:13:15;7.80;99.90
57282;DHT22;43129;52.628;10.098;2023-10-19T14:15:43;7.80;99.90
57282;DHT22;43129;52.628;10.098;2023-10-19T14:18:09;7.80;99.90
57282;DHT22;43129;52.628;10.098;2023-10-19T14:20:38;7.80;99.90
57282;DHT22;43129;52.628;10.098;2023-10-19T14:23:06;7.70;99.90
57282;DHT22;43129;52.628;10.098;2023-10-19T14:25:37;7.70;99.90
57282;DHT22;43129;52.628;10.098;2023-10-19T14:28:08;7.70;99.90
57282;DHT22;43129;52.628;10.098;2023-10-19T14:30:38;7.70;99.90
57282;DHT22;43129;52.628;10.098;2023-10-19T14:33:04;7.70;99.90
57282;DHT22;43129;52.628;10.098;2023-10-19T14:35:34;7.70;99.90
57282;DHT22;43129;52.628;10.098;2023-10-19T14:38:02;7.70;99.90
57282;DHT22;43129;52.628;10.098;2023-10-19T14:40:28;7.70;99.90
57282;DHT22;43129;52.628;10.098;2023-10-19T14:42:55;7.70;99.90
57282;DHT22;43129;52.628;10.098;2023-10-19T14:45:25;7.70;99.90
57282;DHT22;43129;52.628;10.098;2023-10-19T14:47:56;7.70;99.90
57282;DHT22;43129;52.628;10.098;2023-10-19T14:50:30;7.70;99.90
57282;DHT22;43129;52.628;10.098;2023-10-19T14:52:55;7.60;99.90
57282;DHT22;43129;52.628;10.098;2023-10-19T14:55:24;7.60;99.90
57282;DHT22;43129;52.628;10.098;2023-10-19T14:57:53;7.70;99.90
57282;DHT22;43129;52.628;10.098;2023-10-19T15:00:20;7.60;99.90
57282;DHT22;43129;52.628;10.098;2023-10-19T15:03:02;7.70;99.90
57282;DHT22;43129;52.628;10.098;2023-10-19T15:05:34;7.60;99.90
57282;DHT22;43129;52.628;10.098;2023-10-19T15:08:01;7.60;99.90
57282;DHT22;43129;52.628;10.098;2023-10-19T15:10:31;7.60;99.90
57282;DHT22;43129;52.628;10.098;2023-10-19T15:13:00;7.60;99.90
57282;DHT22;43129;52.628;10.098;2023-10-19T15:15:26;7.60;99.90
57282;DHT22;43129;52.628;10.098;2023-10-19T15:17:57;7.60;99.90
57282;DHT22;43129;52.628;10.098;2023-10-19T15:20:26;7.60;99.90
57282;DHT22;43129;52.628;10.098;2023-10-19T15:22:52;7.60;99.90
57282;DHT22;43129;52.628;10.098;2023-10-19T15:25:21;7.60;99.90
57282;DHT22;43129;52.628;10.098;2023-10-19T15:27:50;7.60;99.90
57282;DHT22;43129;52.628;10.098;2023-10-19T15:30:17;7.60;99.90
57282;DHT22;43129;52.628;10.098;2023-10-19T15:32:49;7.50;99.90
57282;DHT22;43129;52.628;10.098;2023-10-19T15:35:18;7.50;99.90
57282;DHT22;43129;52.628;10.098;2023-10-19T15:37:53;7.50;99.90
57282;DHT22;43129;52.628;10.098;2023-10-19T15:40:22;7.50;99.90
57282;DHT22;43129;52.628;10.098;2023-10-19T15:42:53;7.50;99.90
57282;DHT22;43129;52.628;10.098;2023-10-19T15:45:22;7.50;99.90
57282;DHT22;43129;52.628;10.098;2023-10-19T15:47:47;7.50;99.90
57282;DHT22;43129;52.628;10.098;2023-10-19T15:50:18;7.50;99.90
57282;DHT22;43129;52.628;10.098;2023-10-19T15:52:43;7.50;99.90
57282;DHT22;43129;52.628;10.098;2023-10-19T15:55:13;7.40;99.90
57282;DHT22;43129;52.628;10.098;2023-10-19T15:57:39;7.50;99.90
57282;DHT22;43129;52.628;10.098;2023-10-19T16:00:07;7.40;99.90
57282;DHT22;43129;52.628;10.098;2023-10-19T16:02:35;7.40;99.90
57282;DHT22;43129;52.628;10.098;2023-10-19T16:05:04;7.40;99.90
57282;DHT22;43129;52.628;10.098;2023-10-19T16:07:30;7.40;99.90
57282;DHT22;43129;52.628;10.098;2023-10-19T16:09:55;7.30;99.90